메인 페이지
METAR-TAF:

METAR-TAF

공항 :

마리에함, 핀란드

위도: 60-07N, 경도: 019-54E, 고도: 6m

현재 날씨관측

예보는 23분 전, 03:20시(UTC)에 발표되었습니다.
5kt서북서풍과 풍을 오가는
온도 16°C
습도 100%
기압 1012 hPa
시정: 1000m
곳곳에 안개,

METAR: EFMA 210320Z AUTO 35005KT 300V010 1000 R21/1400U BCFG VV002 16/16 Q1012

시각: 06:43 (03:43 UTC)

예보

예보는 1 시간 16분 전, 02:27시(UTC)에 발표되었습니다.
예보 대상 시간: 21일 03시부터 21일 12시까지 (UTC)
북북서6kt
시정: 6000m
고도 300ft 상공 구름 많음
일시적
21일 03시부터 21일 05시까지 (UTC)
시정: 1400m
고도 100ft 상공 구름 많음
박무
전환 중
21일 05시부터 21일 07시까지 (UTC)
시정 10km 이상
고도 1000ft 상공 구름 보통
일시적
21일 09시부터 21일 12시까지 (UTC)
고도 3000ft 상공 구름 조금, 적란운.

TAF: EFMA 210227Z 2103/2112 34006KT 6000 BKN003 TEMPO 2103/2105 1400 BR BKN001 BECMG 2105/2107 9999 SCT010 TEMPO 2109/2112 FEW030CB

4,000개 이상의 공항 관측 자료 및 예보 (METAR 및 TAF 보고).

지도상에서 검색 가능한 기상관측소가 노란 점과 빨간 점으로 표시되어 있습니다.

기상관측소 명을 보려면 표시 위로 마우스를 이동하세요.

날씨 관측과 예보를 보려면 클릭하세요.

지도 변경 : 확대하려면 엑스 표시가 있는 녹색 버튼, 축소하려면 빼기 표시가 있는 녹색 버튼, 다음 페이지의 지도를 보려면 녹색 화살표를 클릭하세요.


METAR-TAF: